sensor_id;sensor_type;location;lat;lon;timestamp;pressure;altitude;pressure_sealevel;temperature;humidity
40940;BME280;26666;50.156;7.700;2023-01-30T00:04:19;101037.75;;;2.69;92.23
40940;BME280;26666;50.156;7.700;2023-01-30T00:09:21;101032.13;;;2.58;92.05
40940;BME280;26666;50.156;7.700;2023-01-30T00:14:23;101034.00;;;2.76;93.48
40940;BME280;26666;50.156;7.700;2023-01-30T00:19:25;101032.88;;;2.62;91.75
40940;BME280;26666;50.156;7.700;2023-01-30T00:24:26;101026.47;;;2.69;93.50
40940;BME280;26666;50.156;7.700;2023-01-30T00:29:28;101006.44;;;2.69;94.60
40940;BME280;26666;50.156;7.700;2023-01-30T00:34:30;101005.47;;;2.72;95.17
40940;BME280;26666;50.156;7.700;2023-01-30T00:39:31;101002.53;;;2.80;94.97
40940;BME280;26666;50.156;7.700;2023-01-30T00:44:32;101033.22;;;2.74;94.85
40940;BME280;26666;50.156;7.700;2023-01-30T00:49:35;101022.06;;;2.71;96.27
40940;BME280;26666;50.156;7.700;2023-01-30T00:54:37;101006.38;;;2.71;96.52
40940;BME280;26666;50.156;7.700;2023-01-30T00:59:38;101005.41;;;2.73;96.36
40940;BME280;26666;50.156;7.700;2023-01-30T01:04:40;100981.59;;;2.81;96.71
40940;BME280;26666;50.156;7.700;2023-01-30T01:09:41;100983.16;;;2.85;95.79
40940;BME280;26666;50.156;7.700;2023-01-30T01:14:43;100980.53;;;2.85;95.76
40940;BME280;26666;50.156;7.700;2023-01-30T01:19:44;100967.88;;;2.96;95.94
40940;BME280;26666;50.156;7.700;2023-01-30T01:24:46;100972.16;;;2.97;95.55
40940;BME280;26666;50.156;7.700;2023-01-30T01:29:47;100966.59;;;3.05;94.79
40940;BME280;26666;50.156;7.700;2023-01-30T01:34:49;100943.53;;;2.96;95.75
40940;BME280;26666;50.156;7.700;2023-01-30T01:39:50;100942.81;;;2.92;96.01
40940;BME280;26666;50.156;7.700;2023-01-30T01:45:18;100940.44;;;3.07;95.55
40940;BME280;26666;50.156;7.700;2023-01-30T01:50:26;100942.84;;;3.11;95.14
40940;BME280;26666;50.156;7.700;2023-01-30T01:55:29;100916.22;;;3.03;96.24
40940;BME280;26666;50.156;7.700;2023-01-30T02:00:31;100896.22;;;3.04;97.28
40940;BME280;26666;50.156;7.700;2023-01-30T02:05:36;100895.44;;;3.02;97.05
40940;BME280;26666;50.156;7.700;2023-01-30T02:15:56;100896.63;;;3.13;98.13
40940;BME280;26666;50.156;7.700;2023-01-30T02:37:08;100890.53;;;3.13;99.20
40940;BME280;26666;50.156;7.700;2023-01-30T02:42:33;100911.59;;;3.29;97.68
40940;BME280;26666;50.156;7.700;2023-01-30T02:47:43;100903.06;;;3.25;96.59
40940;BME280;26666;50.156;7.700;2023-01-30T02:52:47;100910.66;;;3.30;97.64
40940;BME280;26666;50.156;7.700;2023-01-30T02:57:49;100891.31;;;3.34;97.90
40940;BME280;26666;50.156;7.700;2023-01-30T03:03:01;100897.97;;;3.22;98.22
40940;BME280;26666;50.156;7.700;2023-01-30T03:08:26;100878.34;;;3.13;99.56
40940;BME280;26666;50.156;7.700;2023-01-30T03:19:02;100849.94;;;3.25;100.00
40940;BME280;26666;50.156;7.700;2023-01-30T03:24:04;100868.66;;;3.34;99.83
40940;BME280;26666;50.156;7.700;2023-01-30T03:29:06;100856.75;;;3.46;99.29
40940;BME280;26666;50.156;7.700;2023-01-30T03:34:09;100854.38;;;3.42;99.78
40940;BME280;26666;50.156;7.700;2023-01-30T03:39:10;100842.47;;;3.36;100.00
40940;BME280;26666;50.156;7.700;2023-01-30T03:44:12;100820.34;;;3.43;99.19
40940;BME280;26666;50.156;7.700;2023-01-30T03:49:13;100802.56;;;3.32;99.42
40940;BME280;26666;50.156;7.700;2023-01-30T03:54:15;100801.22;;;3.43;100.00
40940;BME280;26666;50.156;7.700;2023-01-30T03:59:16;100780.16;;;3.46;98.96
40940;BME280;26666;50.156;7.700;2023-01-30T04:04:18;100775.16;;;3.24;100.00
40940;BME280;26666;50.156;7.700;2023-01-30T04:09:19;100750.25;;;3.34;100.00
40940;BME280;26666;50.156;7.700;2023-01-30T04:14:21;100731.38;;;3.46;100.00
40940;BME280;26666;50.156;7.700;2023-01-30T04:19:22;100727.28;;;3.06;100.00
40940;BME280;26666;50.156;7.700;2023-01-30T04:24:24;100716.00;;;3.23;100.00
40940;BME280;26666;50.156;7.700;2023-01-30T04:29:25;100710.00;;;3.38;100.00
40940;BME280;26666;50.156;7.700;2023-01-30T04:34:27;100710.00;;;3.38;100.00
40940;BME280;26666;50.156;7.700;2023-01-30T04:39:28;100719.16;;;3.47;100.00
40940;BME280;26666;50.156;7.700;2023-01-30T04:44:30;100702.47;;;3.49;100.00
40940;BME280;26666;50.156;7.700;2023-01-30T04:49:31;100707.09;;;3.44;100.00
40940;BME280;26666;50.156;7.700;2023-01-30T04:54:33;100715.47;;;3.33;100.00
40940;BME280;26666;50.156;7.700;2023-01-30T04:59:34;100697.13;;;3.52;100.00
40940;BME280;26666;50.156;7.700;2023-01-30T05:04:36;100679.28;;;3.61;100.00
40940;BME280;26666;50.156;7.700;2023-01-30T05:09:37;100661.38;;;3.53;100.00
40940;BME280;26666;50.156;7.700;2023-01-30T05:14:39;100673.69;;;3.33;100.00
40940;BME280;26666;50.156;7.700;2023-01-30T05:19:40;100681.06;;;3.43;100.00
40940;BME280;26666;50.156;7.700;2023-01-30T05:24:42;100684.56;;;3.59;100.00
40940;BME280;26666;50.156;7.700;2023-01-30T05:29:43;100673.34;;;3.74;100.00
40940;BME280;26666;50.156;7.700;2023-01-30T05:34:47;100675.56;;;3.65;100.00
40940;BME280;26666;50.156;7.700;2023-01-30T05:39:48;100650.97;;;3.69;100.00
40940;BME280;26666;50.156;7.700;2023-01-30T05:44:50;100649.41;;;3.82;100.00
40940;BME280;26666;50.156;7.700;2023-01-30T05:49:52;100646.19;;;3.77;100.00
40940;BME280;26666;50.156;7.700;2023-01-30T05:54:53;100622.22;;;3.69;100.00
40940;BME280;26666;50.156;7.700;2023-01-30T05:59:55;100632.28;;;3.77;100.00
40940;BME280;26666;50.156;7.700;2023-01-30T06:04:56;100611.28;;;3.78;100.00
40940;BME280;26666;50.156;7.700;2023-01-30T06:09:58;100612.13;;;3.79;100.00
40940;BME280;26666;50.156;7.700;2023-01-30T06:14:59;100626.75;;;3.99;100.00
40940;BME280;26666;50.156;7.700;2023-01-30T06:20:01;100622.69;;;3.93;100.00
40940;BME280;26666;50.156;7.700;2023-01-30T06:25:04;100625.00;;;3.99;100.00
40940;BME280;26666;50.156;7.700;2023-01-30T06:30:06;100640.41;;;4.04;100.00
40940;BME280;26666;50.156;7.700;2023-01-30T06:35:08;100619.91;;;3.96;100.00
40940;BME280;26666;50.156;7.700;2023-01-30T06:40:10;100620.84;;;3.95;100.00
40940;BME280;26666;50.156;7.700;2023-01-30T06:45:13;100641.19;;;4.06;100.00
40940;BME280;26666;50.156;7.700;2023-01-30T06:50:16;100626.31;;;4.06;100.00
40940;BME280;26666;50.156;7.700;2023-01-30T06:55:21;100610.81;;;4.03;100.00
40940;BME280;26666;50.156;7.700;2023-01-30T07:00:23;100620.69;;;4.14;100.00
40940;BME280;26666;50.156;7.700;2023-01-30T07:05:25;100635.03;;;4.23;100.00
40940;BME280;26666;50.156;7.700;2023-01-30T07:10:26;100663.94;;;4.04;100.00
40940;BME280;26666;50.156;7.700;2023-01-30T07:15:28;100652.31;;;4.09;100.00
40940;BME280;26666;50.156;7.700;2023-01-30T07:20:30;100654.53;;;4.33;100.00
40940;BME280;26666;50.156;7.700;2023-01-30T07:25:31;100653.78;;;4.31;100.00
40940;BME280;26666;50.156;7.700;2023-01-30T07:30:34;100666.25;;;4.10;100.00
40940;BME280;26666;50.156;7.700;2023-01-30T07:35:36;100664.22;;;4.15;100.00
40940;BME280;26666;50.156;7.700;2023-01-30T07:40:38;100652.41;;;4.24;100.00
40940;BME280;26666;50.156;7.700;2023-01-30T07:50:43;100682.28;;;4.20;100.00
40940;BME280;26666;50.156;7.700;2023-01-30T07:55:44;100673.44;;;4.22;100.00
40940;BME280;26666;50.156;7.700;2023-01-30T08:00:46;100677.81;;;4.38;100.00
40940;BME280;26666;50.156;7.700;2023-01-30T08:05:51;100664.25;;;4.31;100.00
40940;BME280;26666;50.156;7.700;2023-01-30T08:10:52;100639.59;;;4.35;100.00
40940;BME280;26666;50.156;7.700;2023-01-30T08:15:54;100646.69;;;4.33;100.00
40940;BME280;26666;50.156;7.700;2023-01-30T08:20:57;100656.53;;;4.28;100.00
40940;BME280;26666;50.156;7.700;2023-01-30T08:26:00;100656.16;;;4.51;100.00
40940;BME280;26666;50.156;7.700;2023-01-30T08:31:08;100648.13;;;4.39;100.00
40940;BME280;26666;50.156;7.700;2023-01-30T08:36:10;100661.97;;;4.41;100.00
40940;BME280;26666;50.156;7.700;2023-01-30T08:41:12;100662.03;;;4.55;100.00
40940;BME280;26666;50.156;7.700;2023-01-30T08:46:14;100667.28;;;4.71;100.00
40940;BME280;26666;50.156;7.700;2023-01-30T08:51:15;100666.41;;;4.70;100.00
40940;BME280;26666;50.156;7.700;2023-01-30T08:56:17;100670.97;;;4.67;100.00
40940;BME280;26666;50.156;7.700;2023-01-30T09:01:19;100666.22;;;4.89;100.00
40940;BME280;26666;50.156;7.700;2023-01-30T09:06:20;100647.31;;;4.84;100.00
40940;BME280;26666;50.156;7.700;2023-01-30T09:11:24;100667.38;;;5.00;100.00
40940;BME280;26666;50.156;7.700;2023-01-30T09:16:26;100668.81;;;5.05;100.00
40940;BME280;26666;50.156;7.700;2023-01-30T09:21:27;100660.78;;;5.08;100.00
40940;BME280;26666;50.156;7.700;2023-01-30T09:26:29;100664.97;;;4.97;100.00
40940;BME280;26666;50.156;7.700;2023-01-30T09:31:31;100685.53;;;5.33;100.00
40940;BME280;26666;50.156;7.700;2023-01-30T09:36:32;100687.84;;;5.23;100.00
40940;BME280;26666;50.156;7.700;2023-01-30T09:41:52;100694.28;;;5.33;100.00
40940;BME280;26666;50.156;7.700;2023-01-30T09:57:23;100688.59;;;5.56;100.00
40940;BME280;26666;50.156;7.700;2023-01-30T10:02:40;100682.06;;;5.63;100.00
40940;BME280;26666;50.156;7.700;2023-01-30T10:07:57;100687.78;;;5.55;100.00
40940;BME280;26666;50.156;7.700;2023-01-30T10:13:13;100699.47;;;5.64;100.00
40940;BME280;26666;50.156;7.700;2023-01-30T10:24:14;100679.53;;;5.47;100.00
40940;BME280;26666;50.156;7.700;2023-01-30T10:29:26;100683.97;;;5.30;100.00
40940;BME280;26666;50.156;7.700;2023-01-30T10:34:35;100674.88;;;5.81;100.00
40940;BME280;26666;50.156;7.700;2023-01-30T10:39:58;100664.56;;;5.78;100.00
40940;BME280;26666;50.156;7.700;2023-01-30T10:45:15;100660.44;;;5.73;100.00
40940;BME280;26666;50.156;7.700;2023-01-30T10:50:20;100656.97;;;5.87;100.00
40940;BME280;26666;50.156;7.700;2023-01-30T10:55:43;100666.94;;;5.97;100.00
40940;BME280;26666;50.156;7.700;2023-01-30T11:01:00;100672.44;;;5.78;100.00
40940;BME280;26666;50.156;7.700;2023-01-30T11:06:07;100671.69;;;5.76;100.00
40940;BME280;26666;50.156;7.700;2023-01-30T11:16:29;100658.97;;;5.84;100.00
40940;BME280;26666;50.156;7.700;2023-01-30T11:21:32;100659.88;;;5.83;100.00
40940;BME280;26666;50.156;7.700;2023-01-30T11:26:45;100668.72;;;5.96;100.00
40940;BME280;26666;50.156;7.700;2023-01-30T11:31:50;100675.47;;;6.00;100.00
40940;BME280;26666;50.156;7.700;2023-01-30T11:36:52;100693.19;;;5.97;100.00
40940;BME280;26666;50.156;7.700;2023-01-30T11:47:01;100686.31;;;5.94;100.00
40940;BME280;26666;50.156;7.700;2023-01-30T11:52:04;100685.41;;;6.09;100.00
40940;BME280;26666;50.156;7.700;2023-01-30T11:57:12;100668.81;;;6.09;100.00
40940;BME280;26666;50.156;7.700;2023-01-30T12:02:19;100665.09;;;6.13;100.00
40940;BME280;26666;50.156;7.700;2023-01-30T12:07:27;100640.34;;;6.17;100.00
40940;BME280;26666;50.156;7.700;2023-01-30T12:12:36;100636.22;;;6.13;100.00
40940;BME280;26666;50.156;7.700;2023-01-30T12:17:56;100630.81;;;6.43;100.00
40940;BME280;26666;50.156;7.700;2023-01-30T12:29:28;100632.13;;;6.36;100.00
40940;BME280;26666;50.156;7.700;2023-01-30T12:33:57;100630.00;;;6.56;100.00
40940;BME280;26666;50.156;7.700;2023-01-30T12:54:53;100634.09;;;6.47;100.00
40940;BME280;26666;50.156;7.700;2023-01-30T13:05:36;100644.41;;;6.36;100.00
40940;BME280;26666;50.156;7.700;2023-01-30T13:10:51;100651.63;;;6.46;100.00
40940;BME280;26666;50.156;7.700;2023-01-30T13:16:04;100650.75;;;6.46;100.00
40940;BME280;26666;50.156;7.700;2023-01-30T13:26:47;100662.94;;;6.47;100.00
40940;BME280;26666;50.156;7.700;2023-01-30T13:31:54;100666.16;;;6.52;100.00
40940;BME280;26666;50.156;7.700;2023-01-30T13:37:07;100657.31;;;6.53;100.00
40940;BME280;26666;50.156;7.700;2023-01-30T13:42:30;100659.84;;;6.55;100.00
40940;BME280;26666;50.156;7.700;2023-01-30T13:47:54;100661.47;;;6.43;100.00
40940;BME280;26666;50.156;7.700;2023-01-30T14:03:36;100703.03;;;6.63;100.00
40940;BME280;26666;50.156;7.700;2023-01-30T14:08:57;100711.00;;;6.76;100.00
40940;BME280;26666;50.156;7.700;2023-01-30T14:14:08;100710.59;;;6.82;100.00
40940;BME280;26666;50.156;7.700;2023-01-30T14:24:25;100737.66;;;6.70;100.00
40940;BME280;26666;50.156;7.700;2023-01-30T14:29:51;100762.16;;;6.56;100.00
40940;BME280;26666;50.156;7.700;2023-01-30T14:45:48;100786.78;;;6.54;100.00
40940;BME280;26666;50.156;7.700;2023-01-30T15:01:52;100798.03;;;6.56;100.00
40940;BME280;26666;50.156;7.700;2023-01-30T15:06:57;100809.09;;;6.61;100.00
40940;BME280;26666;50.156;7.700;2023-01-30T15:12:07;100804.16;;;6.56;100.00
40940;BME280;26666;50.156;7.700;2023-01-30T15:28:10;100829.25;;;6.46;98.34
40940;BME280;26666;50.156;7.700;2023-01-30T15:33:20;100833.97;;;6.41;96.13
40940;BME280;26666;50.156;7.700;2023-01-30T15:38:32;100840.25;;;6.38;95.75
40940;BME280;26666;50.156;7.700;2023-01-30T15:49:00;100848.00;;;6.25;97.58
40940;BME280;26666;50.156;7.700;2023-01-30T15:54:09;100856.97;;;5.91;100.00
40940;BME280;26666;50.156;7.700;2023-01-30T15:59:26;100857.91;;;5.90;100.00
40940;BME280;26666;50.156;7.700;2023-01-30T16:04:29;100863.00;;;5.77;100.00
40940;BME280;26666;50.156;7.700;2023-01-30T16:09:31;100875.03;;;5.65;100.00
40940;BME280;26666;50.156;7.700;2023-01-30T16:14:32;100885.88;;;5.59;100.00
40940;BME280;26666;50.156;7.700;2023-01-30T16:19:35;100878.38;;;5.53;100.00
40940;BME280;26666;50.156;7.700;2023-01-30T16:24:41;100892.03;;;5.58;100.00
40940;BME280;26666;50.156;7.700;2023-01-30T16:29:52;100896.19;;;5.46;100.00
40940;BME280;26666;50.156;7.700;2023-01-30T16:40:31;100927.06;;;5.41;100.00
40940;BME280;26666;50.156;7.700;2023-01-30T16:50:59;100947.78;;;5.46;100.00
40940;BME280;26666;50.156;7.700;2023-01-30T16:56:14;100955.22;;;5.38;100.00
40940;BME280;26666;50.156;7.700;2023-01-30T17:01:17;100966.72;;;5.51;100.00
40940;BME280;26666;50.156;7.700;2023-01-30T17:06:34;100969.94;;;5.56;100.00
40940;BME280;26666;50.156;7.700;2023-01-30T17:11:38;100976.53;;;5.63;100.00
40940;BME280;26666;50.156;7.700;2023-01-30T17:16:40;100979.16;;;5.63;100.00
40940;BME280;26666;50.156;7.700;2023-01-30T17:21:43;100988.13;;;5.75;100.00
40940;BME280;26666;50.156;7.700;2023-01-30T17:26:47;100997.91;;;5.87;98.43
40940;BME280;26666;50.156;7.700;2023-01-30T17:31:50;101004.78;;;5.90;98.91
40940;BME280;26666;50.156;7.700;2023-01-30T17:36:53;101007.00;;;5.82;98.06
40940;BME280;26666;50.156;7.700;2023-01-30T17:41:54;101019.84;;;5.86;97.73
40940;BME280;26666;50.156;7.700;2023-01-30T17:46:56;101035.31;;;5.91;97.64
40940;BME280;26666;50.156;7.700;2023-01-30T17:51:57;101044.91;;;5.92;95.35
40940;BME280;26666;50.156;7.700;2023-01-30T17:57:01;101052.69;;;5.93;94.63
40940;BME280;26666;50.156;7.700;2023-01-30T18:02:03;101058.78;;;5.94;95.46
40940;BME280;26666;50.156;7.700;2023-01-30T18:07:06;101063.03;;;5.97;94.41
40940;BME280;26666;50.156;7.700;2023-01-30T18:12:08;101064.47;;;6.02;93.84
40940;BME280;26666;50.156;7.700;2023-01-30T18:17:09;101073.28;;;6.01;95.68
40940;BME280;26666;50.156;7.700;2023-01-30T18:22:11;101090.41;;;5.91;100.00
40940;BME280;26666;50.156;7.700;2023-01-30T18:27:13;101107.00;;;5.91;100.00
40940;BME280;26666;50.156;7.700;2023-01-30T18:32:14;101109.41;;;5.96;97.39
40940;BME280;26666;50.156;7.700;2023-01-30T18:37:16;101107.84;;;5.92;99.61
40940;BME280;26666;50.156;7.700;2023-01-30T18:42:18;101112.25;;;5.91;98.92
40940;BME280;26666;50.156;7.700;2023-01-30T18:47:19;101120.97;;;5.92;98.12
40940;BME280;26666;50.156;7.700;2023-01-30T18:52:21;101123.72;;;5.73;100.00
40940;BME280;26666;50.156;7.700;2023-01-30T18:57:22;101130.56;;;5.76;98.77
40940;BME280;26666;50.156;7.700;2023-01-30T19:02:24;101136.09;;;5.87;98.25
40940;BME280;26666;50.156;7.700;2023-01-30T19:07:25;101130.44;;;5.95;94.87
40940;BME280;26666;50.156;7.700;2023-01-30T19:12:27;101151.38;;;5.96;95.63
40940;BME280;26666;50.156;7.700;2023-01-30T19:17:31;101150.91;;;5.88;100.00
40940;BME280;26666;50.156;7.700;2023-01-30T19:22:32;101151.66;;;5.74;100.00
40940;BME280;26666;50.156;7.700;2023-01-30T19:27:35;101151.25;;;5.82;96.22
40940;BME280;26666;50.156;7.700;2023-01-30T19:32:37;101164.72;;;5.91;94.15
40940;BME280;26666;50.156;7.700;2023-01-30T19:37:38;101166.28;;;5.96;93.65
40940;BME280;26666;50.156;7.700;2023-01-30T19:42:40;101168.50;;;5.86;95.82
40940;BME280;26666;50.156;7.700;2023-01-30T19:47:45;101172.63;;;5.74;94.44
40940;BME280;26666;50.156;7.700;2023-01-30T19:52:46;101177.28;;;5.85;97.68
40940;BME280;26666;50.156;7.700;2023-01-30T19:57:47;101198.91;;;5.90;95.31
40940;BME280;26666;50.156;7.700;2023-01-30T20:02:49;101196.59;;;5.84;94.14
40940;BME280;26666;50.156;7.700;2023-01-30T20:07:50;101190.25;;;5.88;94.49
40940;BME280;26666;50.156;7.700;2023-01-30T20:12:52;101204.00;;;5.76;98.59
40940;BME280;26666;50.156;7.700;2023-01-30T20:17:53;101210.78;;;5.80;94.06
40940;BME280;26666;50.156;7.700;2023-01-30T20:22:55;101211.38;;;5.85;93.91
40940;BME280;26666;50.156;7.700;2023-01-30T20:27:56;101210.22;;;5.90;93.23
40940;BME280;26666;50.156;7.700;2023-01-30T20:32:58;101232.63;;;5.98;92.91
40940;BME280;26666;50.156;7.700;2023-01-30T20:37:59;101242.53;;;5.91;92.43
40940;BME280;26666;50.156;7.700;2023-01-30T20:43:01;101234.59;;;5.92;92.08
40940;BME280;26666;50.156;7.700;2023-01-30T20:48:02;101232.38;;;6.02;91.59
40940;BME280;26666;50.156;7.700;2023-01-30T20:53:04;101247.34;;;6.00;91.88
40940;BME280;26666;50.156;7.700;2023-01-30T20:58:06;101262.94;;;6.03;93.06
40940;BME280;26666;50.156;7.700;2023-01-30T21:03:07;101274.66;;;5.96;94.42
40940;BME280;26666;50.156;7.700;2023-01-30T21:08:09;101284.44;;;5.92;94.64
40940;BME280;26666;50.156;7.700;2023-01-30T21:13:10;101303.50;;;5.79;95.98
40940;BME280;26666;50.156;7.700;2023-01-30T21:18:12;101302.41;;;5.83;97.47
40940;BME280;26666;50.156;7.700;2023-01-30T21:23:14;101313.16;;;5.78;97.88
40940;BME280;26666;50.156;7.700;2023-01-30T21:28:16;101313.84;;;5.82;96.60
40940;BME280;26666;50.156;7.700;2023-01-30T21:33:18;101331.34;;;5.81;98.00
40940;BME280;26666;50.156;7.700;2023-01-30T21:38:19;101333.75;;;5.86;96.23
40940;BME280;26666;50.156;7.700;2023-01-30T21:43:22;101343.16;;;5.72;99.57
40940;BME280;26666;50.156;7.700;2023-01-30T21:48:24;101353.00;;;5.67;100.00
40940;BME280;26666;50.156;7.700;2023-01-30T21:53:25;101361.50;;;5.72;100.00
40940;BME280;26666;50.156;7.700;2023-01-30T21:58:30;101358.13;;;5.70;98.37
40940;BME280;26666;50.156;7.700;2023-01-30T22:03:33;101375.97;;;5.62;100.00
40940;BME280;26666;50.156;7.700;2023-01-30T22:08:36;101375.41;;;5.75;98.52
40940;BME280;26666;50.156;7.700;2023-01-30T22:13:39;101379.16;;;5.69;100.00
40940;BME280;26666;50.156;7.700;2023-01-30T22:18:42;101391.88;;;5.59;100.00
40940;BME280;26666;50.156;7.700;2023-01-30T22:23:45;101397.53;;;5.50;100.00
40940;BME280;26666;50.156;7.700;2023-01-30T22:28:47;101389.56;;;5.34;100.00
40940;BME280;26666;50.156;7.700;2023-01-30T22:33:51;101392.53;;;5.26;100.00
40940;BME280;26666;50.156;7.700;2023-01-30T22:38:53;101391.56;;;5.10;100.00
40940;BME280;26666;50.156;7.700;2023-01-30T22:43:57;101390.97;;;5.03;100.00
40940;BME280;26666;50.156;7.700;2023-01-30T22:48:59;101387.75;;;4.98;100.00
40940;BME280;26666;50.156;7.700;2023-01-30T22:54:04;101391.19;;;4.99;100.00
40940;BME280;26666;50.156;7.700;2023-01-30T22:59:06;101393.75;;;5.00;100.00
40940;BME280;26666;50.156;7.700;2023-01-30T23:04:17;101393.78;;;4.80;100.00
40940;BME280;26666;50.156;7.700;2023-01-30T23:09:21;101402.03;;;4.91;100.00
40940;BME280;26666;50.156;7.700;2023-01-30T23:14:22;101384.47;;;4.93;100.00
40940;BME280;26666;50.156;7.700;2023-01-30T23:19:24;101379.19;;;4.74;100.00
40940;BME280;26666;50.156;7.700;2023-01-30T23:24:26;101382.03;;;4.49;100.00
40940;BME280;26666;50.156;7.700;2023-01-30T23:29:27;101381.59;;;4.39;100.00
40940;BME280;26666;50.156;7.700;2023-01-30T23:34:29;101393.78;;;4.20;100.00
40940;BME280;26666;50.156;7.700;2023-01-30T23:39:30;101404.22;;;4.20;100.00
40940;BME280;26666;50.156;7.700;2023-01-30T23:44:32;101394.22;;;4.09;100.00
40940;BME280;26666;50.156;7.700;2023-01-30T23:49:36;101395.22;;;4.27;100.00
40940;BME280;26666;50.156;7.700;2023-01-30T23:54:38;101391.31;;;4.17;100.00
40940;BME280;26666;50.156;7.700;2023-01-30T23:59:40;101377.03;;;4.03;100.00
